Time;durP1;ratioP1;P1;durP2;ratioP2;P2;SDS_P1;SDS_P2;PMS_P1;PMS_P2;Temp;Humidity;BMP_temperature;BMP_pressure;BME280_temperature;BME280_humidity;BME280_pressure;Samples;Min_cycle;Max_cycle;Signal;HPM_P1;HPM_P2
2023/01/10 00:01:51;;;;;;;;;;;5.20;99.90;;;;;;4980827;28;19929;-81
2023/01/10 00:04:16;;;;;;;;;;;5.00;99.90;;;;;;5013412;28;19994;-82
2023/01/10 00:06:42;;;;;;;;;;;4.90;99.90;;;;;;5028938;28;20019;-82
2023/01/10 00:09:08;;;;;;;;;;;4.80;99.90;;;;;;5013013;28;20679;-82
2023/01/10 00:14:18;;;;;;;;;;;4.60;99.90;;;;;;5029268;28;20005;-82
2023/01/10 00:16:44;;;;;;;;;;;4.50;99.90;;;;;;4995370;28;19957;-82
2023/01/10 00:19:09;;;;;;;;;;;4.50;99.90;;;;;;4996215;28;19951;-82
2023/01/10 00:21:36;;;;;;;;;;;4.40;99.90;;;;;;5013347;28;19925;-82
2023/01/10 00:24:15;;;;;;;;;;;4.40;99.90;;;;;;5010319;28;20011;-82
2023/01/10 00:26:42;;;;;;;;;;;4.40;99.90;;;;;;5012435;28;19968;-82
2023/01/10 00:29:07;;;;;;;;;;;4.40;99.90;;;;;;5012977;28;20309;-81
2023/01/10 00:31:33;;;;;;;;;;;4.40;99.90;;;;;;5011631;28;19928;-82
2023/01/10 00:33:58;;;;;;;;;;;4.50;99.90;;;;;;5012925;28;19984;-82
2023/01/10 00:36:24;;;;;;;;;;;4.60;99.90;;;;;;5010885;28;19925;-82
2023/01/10 00:38:50;;;;;;;;;;;4.70;99.90;;;;;;5010564;28;19925;-82
2023/01/10 00:44:00;;;;;;;;;;;4.80;99.90;;;;;;5028685;28;19937;-82
2023/01/10 00:46:26;;;;;;;;;;;4.90;99.90;;;;;;5007156;28;19925;-82
2023/01/10 00:48:51;;;;;;;;;;;4.90;99.90;;;;;;5009124;28;19929;-82
2023/01/10 00:51:17;;;;;;;;;;;5.00;99.90;;;;;;5009910;28;20048;-82
2023/01/10 00:53:43;;;;;;;;;;;5.00;99.90;;;;;;5011718;28;19952;-82
2023/01/10 00:56:08;;;;;;;;;;;5.10;99.90;;;;;;4998805;28;20277;-82
2023/01/10 00:58:34;;;;;;;;;;;5.20;99.90;;;;;;5010641;28;20006;-82
2023/01/10 01:01:00;;;;;;;;;;;5.20;99.90;;;;;;5020082;28;19928;-82
2023/01/10 01:03:25;;;;;;;;;;;5.20;99.90;;;;;;5018698;28;19929;-82
2023/01/10 01:05:51;;;;;;;;;;;5.30;99.90;;;;;;5016063;28;19940;-82
2023/01/10 01:08:18;;;;;;;;;;;5.30;99.90;;;;;;5029712;28;19925;-82
2023/01/10 01:10:43;;;;;;;;;;;5.30;99.90;;;;;;4997936;28;19969;-82
2023/01/10 01:13:11;;;;;;;;;;;5.40;99.90;;;;;;5015792;28;19932;-82
2023/01/10 01:15:37;;;;;;;;;;;5.40;99.90;;;;;;5015796;28;19925;-82
2023/01/10 01:18:03;;;;;;;;;;;5.40;99.90;;;;;;5000665;28;19952;-82
2023/01/10 01:20:29;;;;;;;;;;;5.50;99.90;;;;;;5015627;28;19933;-82
2023/01/10 01:22:54;;;;;;;;;;;5.50;99.90;;;;;;5016309;28;19936;-82
2023/01/10 01:25:20;;;;;;;;;;;5.60;99.90;;;;;;5016339;28;19929;-82
2023/01/10 01:27:46;;;;;;;;;;;5.60;99.90;;;;;;5012893;28;20491;-82
2023/01/10 01:30:12;;;;;;;;;;;5.70;99.90;;;;;;5015031;28;19955;-82
2023/01/10 01:32:37;;;;;;;;;;;5.60;99.90;;;;;;5032644;28;20009;-82
2023/01/10 01:35:04;;;;;;;;;;;5.70;99.90;;;;;;5014725;28;19961;-81
2023/01/10 01:37:30;;;;;;;;;;;5.70;99.90;;;;;;5027957;28;20251;-82
2023/01/10 01:39:55;;;;;;;;;;;5.70;99.90;;;;;;5015603;28;19936;-82
2023/01/10 01:42:25;;;;;;;;;;;5.60;99.90;;;;;;5014530;28;19929;-82
2023/01/10 01:45:10;;;;;;;;;;;5.50;99.90;;;;;;5013956;28;19956;-82
2023/01/10 01:47:35;;;;;;;;;;;5.40;99.90;;;;;;5030998;28;19933;-82
2023/01/10 01:50:01;;;;;;;;;;;5.40;99.90;;;;;;5032143;28;19934;-82
2023/01/10 01:52:29;;;;;;;;;;;5.40;99.90;;;;;;5018060;28;19929;-82
2023/01/10 01:54:56;;;;;;;;;;;5.30;99.90;;;;;;5014885;28;20267;-82
2023/01/10 01:57:23;;;;;;;;;;;5.30;99.90;;;;;;5017783;28;19936;-82
2023/01/10 01:59:50;;;;;;;;;;;5.20;99.90;;;;;;5034691;28;19963;-82
2023/01/10 02:02:18;;;;;;;;;;;5.30;99.90;;;;;;4999907;28;19936;-82
2023/01/10 02:05:13;;;;;;;;;;;5.30;99.90;;;;;;5014063;28;20410;-82
2023/01/10 02:07:40;;;;;;;;;;;5.30;99.90;;;;;;4999602;28;19929;-82
2023/01/10 02:10:17;;;;;;;;;;;5.20;99.90;;;;;;4999945;28;19929;-82
2023/01/10 02:12:44;;;;;;;;;;;5.30;99.90;;;;;;5014171;28;19929;-82
2023/01/10 02:15:10;;;;;;;;;;;5.30;99.90;;;;;;5013882;28;19925;-82
2023/01/10 02:17:36;;;;;;;;;;;5.30;99.90;;;;;;5014937;28;19933;-82
2023/01/10 02:20:06;;;;;;;;;;;5.30;99.90;;;;;;4997341;28;20340;-82
2023/01/10 02:22:51;;;;;;;;;;;5.30;99.90;;;;;;5028963;28;20334;-82
2023/01/10 02:25:19;;;;;;;;;;;5.20;99.90;;;;;;5025382;28;19939;-82
2023/01/10 02:27:54;;;;;;;;;;;5.10;99.90;;;;;;5029626;28;19933;-82
2023/01/10 02:30:38;;;;;;;;;;;5.10;99.90;;;;;;5012515;28;19925;-82
2023/01/10 02:33:21;;;;;;;;;;;5.00;99.90;;;;;;5010926;28;19932;-82
2023/01/10 02:36:05;;;;;;;;;;;4.90;99.90;;;;;;5013076;28;19986;-82
2023/01/10 02:38:36;;;;;;;;;;;4.80;99.90;;;;;;5020607;28;19929;-82
2023/01/10 02:41:16;;;;;;;;;;;4.70;99.90;;;;;;5031373;28;19925;-82
2023/01/10 02:43:45;;;;;;;;;;;4.60;99.90;;;;;;4998597;28;19974;-82
2023/01/10 02:46:16;;;;;;;;;;;4.60;99.90;;;;;;5014753;28;19936;-82
2023/01/10 02:48:42;;;;;;;;;;;4.60;99.90;;;;;;5015043;28;20154;-82
2023/01/10 02:51:07;;;;;;;;;;;4.60;99.90;;;;;;5000853;28;20655;-82
2023/01/10 02:53:36;;;;;;;;;;;4.60;99.90;;;;;;5027996;28;20151;-82
2023/01/10 02:56:11;;;;;;;;;;;4.60;99.90;;;;;;5014812;28;20434;-82
2023/01/10 02:58:39;;;;;;;;;;;4.70;99.90;;;;;;5029722;28;19926;-82
2023/01/10 03:01:10;;;;;;;;;;;4.80;99.90;;;;;;5032238;28;19991;-84
2023/01/10 03:03:50;;;;;;;;;;;4.90;99.90;;;;;;5013590;28;19939;-84
2023/01/10 03:06:34;;;;;;;;;;;5.10;99.90;;;;;;4994331;28;19933;-84
2023/01/10 03:09:00;;;;;;;;;;;5.20;99.90;;;;;;4997838;28;19929;-83
2023/01/10 03:11:39;;;;;;;;;;;5.30;99.90;;;;;;5032138;28;19929;-83
2023/01/10 03:14:16;;;;;;;;;;;5.40;99.90;;;;;;5015932;28;19997;-83
2023/01/10 03:16:44;;;;;;;;;;;5.50;99.90;;;;;;5030398;28;19971;-83
2023/01/10 03:19:11;;;;;;;;;;;5.50;99.90;;;;;;5026377;28;19933;-83
2023/01/10 03:21:38;;;;;;;;;;;5.50;99.90;;;;;;4998546;28;19933;-83
2023/01/10 03:24:09;;;;;;;;;;;5.50;99.90;;;;;;5014068;28;19956;-83
2023/01/10 03:26:57;;;;;;;;;;;5.50;99.90;;;;;;5030001;28;19987;-83
2023/01/10 03:29:52;;;;;;;;;;;5.50;99.90;;;;;;5013927;28;19929;-83
2023/01/10 03:32:20;;;;;;;;;;;5.50;99.90;;;;;;4941350;28;20013;-83
2023/01/10 03:34:46;;;;;;;;;;;5.50;99.90;;;;;;5015051;28;20451;-83
2023/01/10 03:37:15;;;;;;;;;;;5.50;99.90;;;;;;5030114;28;20388;-83
2023/01/10 03:39:43;;;;;;;;;;;5.50;99.90;;;;;;5029518;28;19929;-83
2023/01/10 03:44:42;;;;;;;;;;;5.50;99.90;;;;;;5008370;28;19926;-83
2023/01/10 03:45:25;;;;;;;;;;;5.50;99.90;;;;;;5010267;28;19925;-83
2023/01/10 03:47:53;;;;;;;;;;;5.50;99.90;;;;;;5030904;28;19936;-83
2023/01/10 03:50:22;;;;;;;;;;;5.50;99.90;;;;;;5010941;28;19925;-84
2023/01/10 03:52:48;;;;;;;;;;;5.60;99.90;;;;;;4995894;28;19929;-84
2023/01/10 03:55:17;;;;;;;;;;;5.60;99.90;;;;;;5012875;28;19939;-83
2023/01/10 03:57:44;;;;;;;;;;;5.60;99.90;;;;;;5020893;28;19940;-83
2023/01/10 04:00:11;;;;;;;;;;;5.60;99.90;;;;;;5034372;28;19925;-83
2023/01/10 04:02:36;;;;;;;;;;;5.60;99.90;;;;;;5028316;28;19948;-83
2023/01/10 04:05:02;;;;;;;;;;;5.60;99.90;;;;;;4996765;28;19937;-83
2023/01/10 04:07:27;;;;;;;;;;;5.60;99.90;;;;;;5012250;28;19971;-83
2023/01/10 04:09:53;;;;;;;;;;;5.60;99.90;;;;;;5028766;28;19984;-83
2023/01/10 04:12:18;;;;;;;;;;;5.70;99.90;;;;;;5012437;28;19997;-83
2023/01/10 04:14:45;;;;;;;;;;;5.70;99.90;;;;;;5011804;28;19947;-83
2023/01/10 04:17:11;;;;;;;;;;;5.70;99.90;;;;;;5029969;28;20059;-84
2023/01/10 04:19:37;;;;;;;;;;;5.70;99.90;;;;;;5011084;28;20044;-83
2023/01/10 04:22:04;;;;;;;;;;;5.70;99.90;;;;;;5012557;28;20427;-83
2023/01/10 04:24:30;;;;;;;;;;;5.80;99.90;;;;;;5011493;28;19925;-83
2023/01/10 04:26:55;;;;;;;;;;;5.80;99.90;;;;;;5029596;28;19941;-84
2023/01/10 04:29:21;;;;;;;;;;;5.80;99.90;;;;;;5009963;28;19968;-83
2023/01/10 04:31:47;;;;;;;;;;;5.80;99.90;;;;;;5012242;28;20509;-84
2023/01/10 04:34:12;;;;;;;;;;;5.80;99.90;;;;;;5027785;28;19957;-83
2023/01/10 04:36:38;;;;;;;;;;;5.90;99.90;;;;;;4994288;28;19925;-83
2023/01/10 04:39:03;;;;;;;;;;;5.80;99.90;;;;;;4997930;28;20034;-83
2023/01/10 04:41:29;;;;;;;;;;;5.70;99.90;;;;;;5014190;28;19940;-83
2023/01/10 04:43:55;;;;;;;;;;;5.70;99.90;;;;;;5032662;28;19936;-83
2023/01/10 04:46:20;;;;;;;;;;;5.60;99.90;;;;;;5032399;28;19928;-83
2023/01/10 04:48:46;;;;;;;;;;;5.60;99.90;;;;;;5009549;28;19978;-83
2023/01/10 04:51:11;;;;;;;;;;;5.60;99.90;;;;;;4986276;28;19929;-83
2023/01/10 04:53:37;;;;;;;;;;;5.60;99.90;;;;;;5000309;28;19929;-83
2023/01/10 04:56:03;;;;;;;;;;;5.50;99.90;;;;;;4984705;28;19935;-83
2023/01/10 04:58:31;;;;;;;;;;;5.50;99.90;;;;;;5029777;28;19925;-83
2023/01/10 05:00:57;;;;;;;;;;;5.50;99.90;;;;;;5033078;28;20673;-83
2023/01/10 05:03:22;;;;;;;;;;;5.50;99.90;;;;;;5031460;28;19961;-84
2023/01/10 05:05:48;;;;;;;;;;;5.50;99.90;;;;;;5017388;28;20357;-84
2023/01/10 05:08:13;;;;;;;;;;;5.60;99.90;;;;;;5000181;28;19960;-83
2023/01/10 05:10:39;;;;;;;;;;;5.60;99.90;;;;;;5012830;28;19960;-83
2023/01/10 05:13:04;;;;;;;;;;;5.60;99.90;;;;;;5017304;28;19991;-83
2023/01/10 05:15:30;;;;;;;;;;;5.60;99.90;;;;;;5016438;28;19926;-83
2023/01/10 05:17:59;;;;;;;;;;;5.60;99.90;;;;;;5016336;28;19932;-83
2023/01/10 05:20:25;;;;;;;;;;;5.60;99.90;;;;;;5032637;28;19960;-87
2023/01/10 05:22:50;;;;;;;;;;;5.60;99.90;;;;;;5033185;28;19925;-87
2023/01/10 05:25:16;;;;;;;;;;;5.60;99.90;;;;;;4985329;28;20028;-88
2023/01/10 05:27:42;;;;;;;;;;;5.70;99.90;;;;;;5013550;28;19929;-89
2023/01/10 05:30:11;;;;;;;;;;;5.70;99.90;;;;;;5033207;28;19991;-87
2023/01/10 05:32:37;;;;;;;;;;;5.70;99.90;;;;;;4983407;28;19925;-88
2023/01/10 05:35:03;;;;;;;;;;;5.70;99.90;;;;;;5031918;28;20391;-87
2023/01/10 05:37:28;;;;;;;;;;;5.70;99.90;;;;;;4985209;28;19932;-87
2023/01/10 05:39:54;;;;;;;;;;;5.70;99.90;;;;;;5031816;28;20477;-87
2023/01/10 05:42:20;;;;;;;;;;;5.70;99.90;;;;;;4997748;28;20019;-87
2023/01/10 05:44:45;;;;;;;;;;;5.70;99.90;;;;;;4995608;28;19948;-87
2023/01/10 05:47:11;;;;;;;;;;;5.70;99.90;;;;;;5029920;28;19929;-87
2023/01/10 05:49:37;;;;;;;;;;;5.80;99.90;;;;;;4998875;28;19929;-87
2023/01/10 05:52:02;;;;;;;;;;;5.80;99.90;;;;;;5032525;28;20059;-87
2023/01/10 05:54:28;;;;;;;;;;;5.80;99.90;;;;;;5000449;28;19925;-87
2023/01/10 05:56:54;;;;;;;;;;;5.70;99.90;;;;;;5023428;28;19929;-88
2023/01/10 05:59:20;;;;;;;;;;;5.70;99.90;;;;;;4992901;28;19928;-87
2023/01/10 06:01:45;;;;;;;;;;;5.60;99.90;;;;;;5019918;28;19937;-88
2023/01/10 06:04:11;;;;;;;;;;;5.50;99.90;;;;;;4996845;28;19929;-87
2023/01/10 06:06:36;;;;;;;;;;;5.50;99.90;;;;;;5015197;28;20014;-88
2023/01/10 06:09:02;;;;;;;;;;;5.40;99.90;;;;;;5015536;28;19932;-87
2023/01/10 06:11:28;;;;;;;;;;;5.40;99.90;;;;;;4980645;28;20430;-88
2023/01/10 06:13:55;;;;;;;;;;;5.30;99.90;;;;;;5030813;28;19964;-87
2023/01/10 06:16:21;;;;;;;;;;;5.30;99.90;;;;;;4995610;28;20391;-88
2023/01/10 06:18:46;;;;;;;;;;;5.20;99.90;;;;;;5000253;28;19925;-87
2023/01/10 06:21:12;;;;;;;;;;;5.10;99.90;;;;;;4983420;28;19925;-87
2023/01/10 06:23:38;;;;;;;;;;;5.10;99.90;;;;;;4996490;28;19940;-87
2023/01/10 06:26:04;;;;;;;;;;;5.10;99.90;;;;;;4999797;28;19933;-87
2023/01/10 06:28:30;;;;;;;;;;;5.10;99.90;;;;;;4993448;28;19932;-87
2023/01/10 06:30:55;;;;;;;;;;;5.10;99.90;;;;;;5032838;28;19929;-87
2023/01/10 06:33:21;;;;;;;;;;;5.10;99.90;;;;;;5015107;28;19933;-87
2023/01/10 06:35:47;;;;;;;;;;;5.10;99.90;;;;;;5032847;28;19929;-88
2023/01/10 06:38:13;;;;;;;;;;;5.10;99.90;;;;;;4980761;28;19929;-86
2023/01/10 06:40:38;;;;;;;;;;;5.10;99.90;;;;;;5016473;28;19936;-88
2023/01/10 06:43:04;;;;;;;;;;;5.00;99.90;;;;;;5019086;28;19925;-86
2023/01/10 06:45:29;;;;;;;;;;;5.00;99.90;;;;;;5016548;28;19925;-88
2023/01/10 06:47:55;;;;;;;;;;;5.00;99.90;;;;;;5009002;28;20352;-86
2023/01/10 06:50:21;;;;;;;;;;;4.90;99.90;;;;;;5012868;28;20065;-82
2023/01/10 06:52:53;;;;;;;;;;;4.90;99.90;;;;;;5032716;28;19936;-82
2023/01/10 06:55:19;;;;;;;;;;;4.90;99.90;;;;;;5021399;28;19987;-82
2023/01/10 06:57:44;;;;;;;;;;;4.80;99.90;;;;;;5038302;28;19929;-82
2023/01/10 07:00:10;;;;;;;;;;;4.80;99.90;;;;;;5036228;28;20012;-82
2023/01/10 07:02:36;;;;;;;;;;;4.80;99.90;;;;;;5019218;28;19925;-82
2023/01/10 07:05:01;;;;;;;;;;;4.70;99.90;;;;;;5021321;28;19929;-82
2023/01/10 07:07:27;;;;;;;;;;;4.70;99.90;;;;;;5020188;28;19925;-81
2023/01/10 07:09:53;;;;;;;;;;;4.70;99.90;;;;;;5020886;28;19952;-82
2023/01/10 07:12:18;;;;;;;;;;;4.80;99.90;;;;;;5037312;28;19972;-82
2023/01/10 07:14:44;;;;;;;;;;;4.90;99.90;;;;;;5020111;28;19925;-82
2023/01/10 07:17:09;;;;;;;;;;;4.90;99.90;;;;;;5020940;28;19933;-82
2023/01/10 07:19:35;;;;;;;;;;;5.00;99.90;;;;;;5036488;28;20367;-82
2023/01/10 07:22:01;;;;;;;;;;;5.00;99.90;;;;;;5019935;28;19925;-82
2023/01/10 07:24:26;;;;;;;;;;;5.00;99.90;;;;;;5029521;28;19926;-82
2023/01/10 07:26:55;;;;;;;;;;;5.10;99.90;;;;;;5021089;28;19929;-82
2023/01/10 07:29:20;;;;;;;;;;;5.00;99.90;;;;;;5038488;28;19954;-82
2023/01/10 07:31:46;;;;;;;;;;;5.00;99.90;;;;;;5018809;28;20044;-82
2023/01/10 07:34:12;;;;;;;;;;;5.00;99.90;;;;;;5038653;28;20004;-82
2023/01/10 07:36:37;;;;;;;;;;;5.00;99.90;;;;;;5019179;28;19936;-82
2023/01/10 07:39:03;;;;;;;;;;;5.00;99.90;;;;;;5020706;28;19932;-82
2023/01/10 07:41:28;;;;;;;;;;;5.00;99.90;;;;;;5002986;28;19925;-82
2023/01/10 07:43:54;;;;;;;;;;;5.00;99.90;;;;;;5003134;28;19925;-82
2023/01/10 07:46:19;;;;;;;;;;;5.00;99.90;;;;;;5019834;28;19926;-82
2023/01/10 07:48:45;;;;;;;;;;;5.00;99.90;;;;;;5019851;28;19925;-81
2023/01/10 07:51:11;;;;;;;;;;;5.00;99.90;;;;;;5037986;28;19987;-82
2023/01/10 07:53:37;;;;;;;;;;;5.00;99.90;;;;;;5015740;28;19929;-82
2023/01/10 07:56:03;;;;;;;;;;;5.10;99.90;;;;;;5038587;28;19925;-82
2023/01/10 07:58:28;;;;;;;;;;;5.10;99.90;;;;;;5019008;28;19929;-82
2023/01/10 08:00:58;;;;;;;;;;;5.10;99.90;;;;;;5020445;28;19968;-82
2023/01/10 08:03:23;;;;;;;;;;;5.10;99.90;;;;;;5019103;28;20297;-82
2023/01/10 08:05:49;;;;;;;;;;;5.10;99.90;;;;;;5035984;28;19932;-82
2023/01/10 08:08:16;;;;;;;;;;;5.10;99.90;;;;;;5019719;28;19925;-82
2023/01/10 08:10:41;;;;;;;;;;;5.00;99.90;;;;;;5002816;28;19960;-82
2023/01/10 08:13:07;;;;;;;;;;;5.00;99.90;;;;;;5018897;28;20355;-81
2023/01/10 08:15:33;;;;;;;;;;;5.10;99.90;;;;;;4995691;28;19925;-82
2023/01/10 08:18:01;;;;;;;;;;;5.10;99.90;;;;;;5032871;28;19926;-82
2023/01/10 08:20:28;;;;;;;;;;;5.10;99.90;;;;;;5018335;28;19925;-82
2023/01/10 08:22:55;;;;;;;;;;;5.10;99.90;;;;;;5030850;28;19975;-82
2023/01/10 08:25:21;;;;;;;;;;;5.20;99.90;;;;;;5018367;28;19929;-82
2023/01/10 08:27:46;;;;;;;;;;;5.20;99.90;;;;;;5015767;28;19926;-82
2023/01/10 08:30:12;;;;;;;;;;;5.20;99.90;;;;;;5033723;28;19985;-82
2023/01/10 08:32:38;;;;;;;;;;;5.30;99.90;;;;;;5002061;28;19929;-82
2023/01/10 08:35:04;;;;;;;;;;;5.30;99.90;;;;;;5006155;28;19976;-81
2023/01/10 08:37:30;;;;;;;;;;;5.40;99.90;;;;;;5018683;28;19925;-81
2023/01/10 08:39:56;;;;;;;;;;;5.40;99.90;;;;;;5037745;28;19925;-82
2023/01/10 08:42:21;;;;;;;;;;;5.50;99.90;;;;;;5019721;28;20410;-81
2023/01/10 08:44:47;;;;;;;;;;;5.60;99.90;;;;;;5018736;28;20495;-82
2023/01/10 08:47:12;;;;;;;;;;;5.60;99.90;;;;;;5034772;28;19988;-82
2023/01/10 08:49:38;;;;;;;;;;;5.70;99.90;;;;;;5035044;28;19925;-82
2023/01/10 08:52:03;;;;;;;;;;;5.80;99.90;;;;;;5038120;28;19955;-82
2023/01/10 08:54:29;;;;;;;;;;;5.80;99.90;;;;;;5018572;28;19980;-82
2023/01/10 08:56:54;;;;;;;;;;;5.90;99.90;;;;;;5018450;28;19925;-82
2023/01/10 08:59:20;;;;;;;;;;;5.90;99.90;;;;;;5019297;28;19925;-82
2023/01/10 09:01:46;;;;;;;;;;;6.00;99.90;;;;;;5036896;28;19940;-81
2023/01/10 09:04:11;;;;;;;;;;;6.00;99.90;;;;;;5019422;28;19929;-82
2023/01/10 09:06:37;;;;;;;;;;;6.10;99.90;;;;;;5016908;28;19956;-82
2023/01/10 09:09:03;;;;;;;;;;;6.10;99.90;;;;;;5036680;28;19964;-82
2023/01/10 09:11:28;;;;;;;;;;;6.20;99.90;;;;;;5018229;28;19979;-82
2023/01/10 09:13:54;;;;;;;;;;;6.20;99.90;;;;;;5003903;28;19929;-82
2023/01/10 09:16:19;;;;;;;;;;;6.30;99.90;;;;;;5017564;28;19940;-81
2023/01/10 09:18:45;;;;;;;;;;;6.30;99.90;;;;;;5036853;28;19925;-82
2023/01/10 09:21:10;;;;;;;;;;;6.40;99.90;;;;;;5019729;28;19948;-82
2023/01/10 09:23:38;;;;;;;;;;;6.40;99.90;;;;;;5002082;28;19925;-82
2023/01/10 09:26:04;;;;;;;;;;;6.50;99.90;;;;;;5019934;28;19940;-82
2023/01/10 09:28:29;;;;;;;;;;;6.50;99.90;;;;;;5033808;28;20036;-82
2023/01/10 09:30:55;;;;;;;;;;;6.60;99.90;;;;;;5023875;28;19948;-82
2023/01/10 09:33:21;;;;;;;;;;;6.60;99.90;;;;;;5022359;28;19932;-81
2023/01/10 09:35:46;;;;;;;;;;;6.70;99.90;;;;;;5039459;28;19992;-82
2023/01/10 09:38:14;;;;;;;;;;;6.70;99.90;;;;;;5037540;28;19933;-82
2023/01/10 09:40:59;;;;;;;;;;;6.70;99.90;;;;;;5038451;28;19932;-82
2023/01/10 09:43:31;;;;;;;;;;;6.80;99.90;;;;;;5023740;28;19929;-82
2023/01/10 09:46:04;;;;;;;;;;;6.80;99.90;;;;;;5021777;28;19961;-82
2023/01/10 09:48:34;;;;;;;;;;;6.80;99.90;;;;;;5013914;28;19925;-82
2023/01/10 09:51:12;;;;;;;;;;;6.90;99.90;;;;;;5040713;28;19925;-82
2023/01/10 09:53:41;;;;;;;;;;;6.90;99.90;;;;;;5023572;28;19926;-82
2023/01/10 09:56:07;;;;;;;;;;;6.90;99.90;;;;;;5024968;28;19925;-82
2023/01/10 09:58:34;;;;;;;;;;;6.90;99.90;;;;;;5022504;28;19929;-82
2023/01/10 10:01:12;;;;;;;;;;;6.90;99.90;;;;;;5039062;28;19932;-82
2023/01/10 10:03:46;;;;;;;;;;;6.90;99.90;;;;;;5039751;28;19929;-82
2023/01/10 10:06:13;;;;;;;;;;;6.90;99.90;;;;;;5022185;28;20091;-82
2023/01/10 10:08:39;;;;;;;;;;;6.90;99.90;;;;;;5038984;28;20238;-82
2023/01/10 10:11:23;;;;;;;;;;;6.90;99.90;;;;;;5039207;28;19933;-82
2023/01/10 10:13:54;;;;;;;;;;;6.90;99.90;;;;;;5039627;28;19925;-82
2023/01/10 10:16:26;;;;;;;;;;;6.90;99.90;;;;;;5005131;28;19931;-82
2023/01/10 10:19:10;;;;;;;;;;;7.00;99.90;;;;;;5039517;28;19926;-82
2023/01/10 10:21:39;;;;;;;;;;;7.00;99.90;;;;;;5022049;28;20394;-82
2023/01/10 10:24:12;;;;;;;;;;;7.10;99.90;;;;;;5021016;28;20414;-82
2023/01/10 10:26:43;;;;;;;;;;;7.00;99.90;;;;;;5006631;28;20001;-82
2023/01/10 10:29:32;;;;;;;;;;;7.00;99.90;;;;;;5021641;28;19932;-82
2023/01/10 10:32:16;;;;;;;;;;;7.00;99.90;;;;;;5015499;28;19926;-82
2023/01/10 10:34:52;;;;;;;;;;;7.00;99.90;;;;;;5022637;28;19929;-82
2023/01/10 10:37:39;;;;;;;;;;;7.00;99.90;;;;;;5011710;28;19999;-82
2023/01/10 10:40:06;;;;;;;;;;;7.00;99.90;;;;;;5009388;28;19925;-82
2023/01/10 10:42:34;;;;;;;;;;;7.00;99.90;;;;;;5037687;28;19925;-82
2023/01/10 10:45:16;;;;;;;;;;;7.00;99.90;;;;;;5020892;28;19929;-82
2023/01/10 10:47:48;;;;;;;;;;;7.00;99.90;;;;;;5038819;28;19936;-81
2023/01/10 10:50:14;;;;;;;;;;;7.00;99.90;;;;;;5020956;28;19925;-82
2023/01/10 10:52:41;;;;;;;;;;;7.00;99.90;;;;;;5021337;28;19925;-82
2023/01/10 10:55:11;;;;;;;;;;;7.10;99.90;;;;;;5005052;28;19929;-82
2023/01/10 10:57:37;;;;;;;;;;;7.10;99.90;;;;;;5020712;28;21218;-82
2023/01/10 11:00:04;;;;;;;;;;;7.10;99.90;;;;;;5038266;28;19940;-81
2023/01/10 11:02:30;;;;;;;;;;;7.10;99.90;;;;;;5020293;28;19925;-82
2023/01/10 11:04:58;;;;;;;;;;;7.10;99.90;;;;;;5005565;28;19925;-81
2023/01/10 11:07:24;;;;;;;;;;;7.10;99.90;;;;;;5038575;28;19925;-82
2023/01/10 11:12:50;;;;;;;;;;;7.10;99.90;;;;;;5005175;28;19931;-82
2023/01/10 11:15:34;;;;;;;;;;;7.10;99.90;;;;;;5036848;28;19929;-82
2023/01/10 11:18:04;;;;;;;;;;;7.00;99.90;;;;;;5021017;28;19989;-82
2023/01/10 11:20:30;;;;;;;;;;;7.00;99.90;;;;;;5019901;28;19929;-82
2023/01/10 11:22:56;;;;;;;;;;;7.10;99.90;;;;;;5020627;28;19964;-82
2023/01/10 11:25:22;;;;;;;;;;;7.10;99.90;;;;;;5020932;28;19933;-81
2023/01/10 11:27:48;;;;;;;;;;;7.10;99.90;;;;;;5020574;28;20478;-82
2023/01/10 11:30:18;;;;;;;;;;;7.00;99.90;;;;;;5015021;28;19925;-82
2023/01/10 11:32:51;;;;;;;;;;;7.10;99.90;;;;;;5003845;28;19929;-81
2023/01/10 11:35:22;;;;;;;;;;;7.10;99.90;;;;;;5021402;28;19991;-82
2023/01/10 11:38:02;;;;;;;;;;;7.10;99.90;;;;;;5020200;28;19925;-82
2023/01/10 11:40:31;;;;;;;;;;;7.10;99.90;;;;;;5011285;28;20075;-82
2023/01/10 11:42:57;;;;;;;;;;;7.10;99.90;;;;;;5020758;28;19925;-82
2023/01/10 11:45:33;;;;;;;;;;;7.10;99.90;;;;;;5019522;28;19925;-82
2023/01/10 11:47:58;;;;;;;;;;;7.10;99.90;;;;;;5007663;28;19979;-82
2023/01/10 11:50:28;;;;;;;;;;;7.10;99.90;;;;;;5018652;28;19929;-82
2023/01/10 11:52:54;;;;;;;;;;;7.10;99.90;;;;;;5035451;28;19925;-82
2023/01/10 11:55:22;;;;;;;;;;;7.10;99.90;;;;;;5036820;28;20012;-82
2023/01/10 11:57:55;;;;;;;;;;;7.10;99.90;;;;;;5037609;28;20006;-82
2023/01/10 12:00:21;;;;;;;;;;;7.10;99.90;;;;;;5037582;28;19929;-82
2023/01/10 12:02:49;;;;;;;;;;;7.10;99.90;;;;;;5020314;28;19980;-82
2023/01/10 12:05:19;;;;;;;;;;;7.10;99.90;;;;;;5004740;28;19925;-82
2023/01/10 12:07:55;;;;;;;;;;;7.00;99.90;;;;;;5016950;28;19925;-82
2023/01/10 12:10:21;;;;;;;;;;;7.00;99.90;;;;;;5037435;28;19936;-82
2023/01/10 12:12:57;;;;;;;;;;;7.00;99.90;;;;;;5020212;28;19929;-82
2023/01/10 12:15:25;;;;;;;;;;;6.90;99.90;;;;;;5019405;28;19947;-82
2023/01/10 12:17:51;;;;;;;;;;;6.90;99.90;;;;;;5013952;28;19933;-82
2023/01/10 12:20:16;;;;;;;;;;;6.90;99.90;;;;;;5036949;28;19926;-82
2023/01/10 12:22:47;;;;;;;;;;;6.90;99.90;;;;;;5019941;28;20019;-82
2023/01/10 12:25:19;;;;;;;;;;;6.90;99.90;;;;;;5019899;28;19926;-82
2023/01/10 12:27:48;;;;;;;;;;;6.90;99.90;;;;;;5001992;28;19925;-81
2023/01/10 12:30:17;;;;;;;;;;;6.80;99.90;;;;;;5021035;28;20060;-82
2023/01/10 12:32:51;;;;;;;;;;;6.80;99.90;;;;;;5019086;28;19925;-82
2023/01/10 12:35:36;;;;;;;;;;;6.80;99.90;;;;;;5020435;28;19932;-82
2023/01/10 12:38:06;;;;;;;;;;;6.80;99.90;;;;;;5016521;28;19936;-82
2023/01/10 12:40:39;;;;;;;;;;;6.80;99.90;;;;;;5014518;28;19988;-82
2023/01/10 12:46:19;;;;;;;;;;;6.70;99.90;;;;;;5035389;28;19929;-82
2023/01/10 12:48:49;;;;;;;;;;;6.70;99.90;;;;;;5018435;28;19925;-82
2023/01/10 12:51:18;;;;;;;;;;;6.70;99.90;;;;;;5037373;28;19999;-82
2023/01/10 12:53:47;;;;;;;;;;;6.70;99.90;;;;;;5036475;28;19976;-82
2023/01/10 12:56:14;;;;;;;;;;;6.70;99.90;;;;;;4999754;28;19940;-82
2023/01/10 12:58:42;;;;;;;;;;;6.70;99.90;;;;;;5009101;28;19929;-82
2023/01/10 13:01:11;;;;;;;;;;;6.70;99.90;;;;;;5020614;28;20022;-82
2023/01/10 13:03:38;;;;;;;;;;;6.70;99.90;;;;;;5038356;28;19925;-82
2023/01/10 13:06:03;;;;;;;;;;;6.60;99.90;;;;;;5006445;28;19970;-82
2023/01/10 13:08:31;;;;;;;;;;;6.60;99.90;;;;;;5041676;28;19925;-82
2023/01/10 13:10:58;;;;;;;;;;;6.60;99.90;;;;;;5037035;28;19925;-82
2023/01/10 13:13:35;;;;;;;;;;;6.60;99.90;;;;;;5040623;28;19971;-82
2023/01/10 13:16:19;;;;;;;;;;;6.60;99.90;;;;;;5022452;28;19936;-82
2023/01/10 13:19:03;;;;;;;;;;;6.60;99.90;;;;;;5015089;28;19926;-82
2023/01/10 13:21:29;;;;;;;;;;;6.50;99.90;;;;;;5020173;28;20350;-82
2023/01/10 13:24:00;;;;;;;;;;;6.50;99.90;;;;;;5021027;28;20300;-82
2023/01/10 13:26:25;;;;;;;;;;;6.50;99.90;;;;;;5041795;28;19925;-82
2023/01/10 13:28:59;;;;;;;;;;;6.50;99.90;;;;;;5022790;28;19935;-82
2023/01/10 13:31:27;;;;;;;;;;;6.50;99.90;;;;;;5022948;28;19929;-82
2023/01/10 13:33:53;;;;;;;;;;;6.50;99.90;;;;;;5005917;28;19924;-82
2023/01/10 13:36:20;;;;;;;;;;;6.50;99.90;;;;;;5022437;28;19948;-82
2023/01/10 13:38:51;;;;;;;;;;;6.50;99.90;;;;;;5023198;28;20011;-82
2023/01/10 13:44:02;;;;;;;;;;;6.40;99.90;;;;;;5039055;28;19968;-82
2023/01/10 13:46:33;;;;;;;;;;;6.40;99.90;;;;;;5022314;28;19933;-82
2023/01/10 13:48:59;;;;;;;;;;;6.50;99.90;;;;;;5021716;28;19930;-81
2023/01/10 13:51:25;;;;;;;;;;;6.40;99.90;;;;;;5023021;28;19947;-82
2023/01/10 13:54:01;;;;;;;;;;;6.50;99.90;;;;;;5037181;28;19972;-82
2023/01/10 13:56:31;;;;;;;;;;;6.40;99.90;;;;;;5010090;28;20322;-82
2023/01/10 14:04:27;;;;;;;;;;;6.40;99.90;;;;;;5022413;28;20055;-82
2023/01/10 14:06:54;;;;;;;;;;;6.40;99.90;;;;;;5021332;28;19933;-82
2023/01/10 14:09:19;;;;;;;;;;;6.40;99.90;;;;;;5041183;28;19932;-82
2023/01/10 14:12:06;;;;;;;;;;;6.50;99.90;;;;;;5021667;28;19929;-82
2023/01/10 14:14:38;;;;;;;;;;;6.50;99.90;;;;;;5012954;28;19929;-82
2023/01/10 14:17:18;;;;;;;;;;;6.40;99.90;;;;;;5021507;28;19929;-82
2023/01/10 14:19:45;;;;;;;;;;;6.50;99.90;;;;;;5004754;28;19927;-82
2023/01/10 14:22:22;;;;;;;;;;;6.50;99.90;;;;;;5022857;28;19932;-82
2023/01/10 14:24:50;;;;;;;;;;;6.50;99.90;;;;;;5021507;28;20339;-82
2023/01/10 14:27:16;;;;;;;;;;;6.50;99.90;;;;;;5020660;28;19993;-82
2023/01/10 14:29:58;;;;;;;;;;;6.50;99.90;;;;;;5022247;28;19925;-82
2023/01/10 14:32:28;;;;;;;;;;;6.50;99.90;;;;;;5021053;28;20058;-82
2023/01/10 14:34:54;;;;;;;;;;;6.50;99.90;;;;;;5040572;28;19929;-82
2023/01/10 14:37:31;;;;;;;;;;;6.50;99.90;;;;;;5019217;28;19925;-82
2023/01/10 14:39:58;;;;;;;;;;;6.50;99.90;;;;;;5021395;28;20334;-82
2023/01/10 14:42:24;;;;;;;;;;;6.50;99.90;;;;;;5039686;28;19935;-82
2023/01/10 14:44:58;;;;;;;;;;;6.50;99.90;;;;;;5035636;28;19925;-82
2023/01/10 14:47:28;;;;;;;;;;;6.50;99.90;;;;;;5021001;28;19954;-82
2023/01/10 14:49:59;;;;;;;;;;;6.50;99.90;;;;;;5021052;28;20412;-82
2023/01/10 14:52:25;;;;;;;;;;;6.50;99.90;;;;;;5038808;28;19999;-82
2023/01/10 14:55:01;;;;;;;;;;;6.50;99.90;;;;;;5020967;28;19932;-82
2023/01/10 14:57:27;;;;;;;;;;;6.50;99.90;;;;;;5039044;28;20334;-82
2023/01/10 15:00:02;;;;;;;;;;;6.50;99.90;;;;;;5022899;28;19929;-82